Aviation Digital Data Service (ADDS)

Output produced by METARs form (0032 UTC 28 March 2015)
found at http://aviationweather.gov/adds/metars/
 
KFDY 272340Z 2800/2824 35010KT P6SM VCSH BKN060 
     FM280400 36010KT P6SM SCT060